sensor_id;sensor_type;location;lat;lon;timestamp;P1;durP1;ratioP1;P2;durP2;ratioP2
4521;SDS011;2273;48.464;11.926;2023-02-24T00:01:02;22.90;;;14.40;;
4521;SDS011;2273;48.464;11.926;2023-02-24T00:03:37;27.77;;;15.83;;
4521;SDS011;2273;48.464;11.926;2023-02-24T00:06:03;26.67;;;15.70;;
4521;SDS011;2273;48.464;11.926;2023-02-24T00:08:36;22.77;;;16.90;;
4521;SDS011;2273;48.464;11.926;2023-02-24T00:11:21;23.43;;;14.90;;
4521;SDS011;2273;48.464;11.926;2023-02-24T00:13:46;25.53;;;14.87;;
4521;SDS011;2273;48.464;11.926;2023-02-24T00:16:13;25.23;;;16.30;;
4521;SDS011;2273;48.464;11.926;2023-02-24T00:18:41;22.17;;;13.70;;
4521;SDS011;2273;48.464;11.926;2023-02-24T00:21:09;24.00;;;15.53;;
4521;SDS011;2273;48.464;11.926;2023-02-24T00:23:40;25.00;;;14.87;;
4521;SDS011;2273;48.464;11.926;2023-02-24T00:26:07;24.37;;;16.17;;
4521;SDS011;2273;48.464;11.926;2023-02-24T00:28:33;24.83;;;15.63;;
4521;SDS011;2273;48.464;11.926;2023-02-24T00:31:03;25.77;;;16.07;;
4521;SDS011;2273;48.464;11.926;2023-02-24T00:33:30;30.50;;;15.60;;
4521;SDS011;2273;48.464;11.926;2023-02-24T00:36:03;35.80;;;19.33;;
4521;SDS011;2273;48.464;11.926;2023-02-24T00:38:33;31.93;;;20.13;;
4521;SDS011;2273;48.464;11.926;2023-02-24T00:41:09;32.03;;;18.83;;
4521;SDS011;2273;48.464;11.926;2023-02-24T00:43:38;30.07;;;19.60;;
4521;SDS011;2273;48.464;11.926;2023-02-24T00:46:04;36.60;;;21.47;;
4521;SDS011;2273;48.464;11.926;2023-02-24T00:48:37;36.17;;;20.63;;
4521;SDS011;2273;48.464;11.926;2023-02-24T00:51:10;36.30;;;21.60;;
4521;SDS011;2273;48.464;11.926;2023-02-24T00:53:37;43.20;;;24.93;;
4521;SDS011;2273;48.464;11.926;2023-02-24T00:56:06;45.63;;;24.43;;
4521;SDS011;2273;48.464;11.926;2023-02-24T00:58:34;39.83;;;22.53;;
4521;SDS011;2273;48.464;11.926;2023-02-24T01:00:59;34.80;;;19.83;;
4521;SDS011;2273;48.464;11.926;2023-02-24T01:03:26;36.13;;;21.20;;
4521;SDS011;2273;48.464;11.926;2023-02-24T01:05:52;35.57;;;21.60;;
4521;SDS011;2273;48.464;11.926;2023-02-24T01:08:17;39.67;;;23.70;;
4521;SDS011;2273;48.464;11.926;2023-02-24T01:10:58;37.60;;;22.27;;
4521;SDS011;2273;48.464;11.926;2023-02-24T01:13:43;35.50;;;22.30;;
4521;SDS011;2273;48.464;11.926;2023-02-24T01:16:09;38.10;;;20.83;;
4521;SDS011;2273;48.464;11.926;2023-02-24T01:18:37;33.93;;;21.90;;
4521;SDS011;2273;48.464;11.926;2023-02-24T01:21:02;33.83;;;20.67;;
4521;SDS011;2273;48.464;11.926;2023-02-24T01:23:28;35.27;;;20.93;;
4521;SDS011;2273;48.464;11.926;2023-02-24T01:25:53;34.87;;;20.53;;
4521;SDS011;2273;48.464;11.926;2023-02-24T01:28:22;30.43;;;18.97;;
4521;SDS011;2273;48.464;11.926;2023-02-24T01:30:47;30.33;;;18.80;;
4521;SDS011;2273;48.464;11.926;2023-02-24T01:33:13;23.77;;;16.10;;
4521;SDS011;2273;48.464;11.926;2023-02-24T01:35:41;24.90;;;16.60;;
4521;SDS011;2273;48.464;11.926;2023-02-24T01:38:07;27.27;;;17.10;;
4521;SDS011;2273;48.464;11.926;2023-02-24T01:40:32;25.13;;;16.43;;
4521;SDS011;2273;48.464;11.926;2023-02-24T01:42:58;28.30;;;16.07;;
4521;SDS011;2273;48.464;11.926;2023-02-24T01:45:24;32.83;;;18.03;;
4521;SDS011;2273;48.464;11.926;2023-02-24T01:47:55;23.70;;;15.30;;
4521;SDS011;2273;48.464;11.926;2023-02-24T01:50:24;26.10;;;16.00;;
4521;SDS011;2273;48.464;11.926;2023-02-24T01:52:51;29.27;;;16.40;;
4521;SDS011;2273;48.464;11.926;2023-02-24T01:55:24;25.17;;;16.13;;
4521;SDS011;2273;48.464;11.926;2023-02-24T01:57:56;27.07;;;17.63;;
4521;SDS011;2273;48.464;11.926;2023-02-24T02:00:24;28.83;;;19.07;;
4521;SDS011;2273;48.464;11.926;2023-02-24T02:03:17;26.73;;;17.57;;
4521;SDS011;2273;48.464;11.926;2023-02-24T02:05:47;28.13;;;18.13;;
4521;SDS011;2273;48.464;11.926;2023-02-24T02:08:14;30.33;;;18.60;;
4521;SDS011;2273;48.464;11.926;2023-02-24T02:10:41;25.07;;;16.27;;
4521;SDS011;2273;48.464;11.926;2023-02-24T02:13:08;33.30;;;20.10;;
4521;SDS011;2273;48.464;11.926;2023-02-24T02:15:41;28.77;;;19.30;;
4521;SDS011;2273;48.464;11.926;2023-02-24T02:18:15;28.73;;;18.63;;
4521;SDS011;2273;48.464;11.926;2023-02-24T02:26:26;26.17;;;17.27;;
4521;SDS011;2273;48.464;11.926;2023-02-24T02:37:40;29.77;;;16.87;;
4521;SDS011;2273;48.464;11.926;2023-02-24T02:42:57;33.93;;;19.33;;
4521;SDS011;2273;48.464;11.926;2023-02-24T02:45:29;30.07;;;18.70;;
4521;SDS011;2273;48.464;11.926;2023-02-24T02:48:23;35.20;;;19.63;;
4521;SDS011;2273;48.464;11.926;2023-02-24T02:50:58;27.13;;;17.40;;
4521;SDS011;2273;48.464;11.926;2023-02-24T02:59:09;31.77;;;19.10;;
4521;SDS011;2273;48.464;11.926;2023-02-24T03:01:37;39.60;;;20.93;;
4521;SDS011;2273;48.464;11.926;2023-02-24T03:04:06;32.87;;;19.30;;
4521;SDS011;2273;48.464;11.926;2023-02-24T03:06:38;33.43;;;17.90;;
4521;SDS011;2273;48.464;11.926;2023-02-24T03:09:08;38.20;;;18.30;;
4521;SDS011;2273;48.464;11.926;2023-02-24T03:11:45;34.07;;;19.30;;
4521;SDS011;2273;48.464;11.926;2023-02-24T03:14:14;32.30;;;18.83;;
4521;SDS011;2273;48.464;11.926;2023-02-24T03:16:43;31.50;;;19.60;;
4521;SDS011;2273;48.464;11.926;2023-02-24T03:19:10;27.97;;;18.43;;
4521;SDS011;2273;48.464;11.926;2023-02-24T03:21:39;28.73;;;18.17;;
4521;SDS011;2273;48.464;11.926;2023-02-24T03:24:09;36.67;;;19.90;;
4521;SDS011;2273;48.464;11.926;2023-02-24T03:36:55;25.33;;;17.27;;
4521;SDS011;2273;48.464;11.926;2023-02-24T03:39:21;34.60;;;18.20;;
4521;SDS011;2273;48.464;11.926;2023-02-24T03:42:03;23.97;;;14.97;;
4521;SDS011;2273;48.464;11.926;2023-02-24T03:44:33;31.23;;;17.57;;
4521;SDS011;2273;48.464;11.926;2023-02-24T03:46:59;32.33;;;15.50;;
4521;SDS011;2273;48.464;11.926;2023-02-24T03:49:25;23.37;;;15.40;;
4521;SDS011;2273;48.464;11.926;2023-02-24T03:51:55;25.30;;;16.53;;
4521;SDS011;2273;48.464;11.926;2023-02-24T03:59:57;30.70;;;16.43;;
4521;SDS011;2273;48.464;11.926;2023-02-24T04:02:45;25.80;;;16.20;;
4521;SDS011;2273;48.464;11.926;2023-02-24T04:05:11;33.10;;;18.97;;
4521;SDS011;2273;48.464;11.926;2023-02-24T04:10:22;26.40;;;16.97;;
4521;SDS011;2273;48.464;11.926;2023-02-24T04:13:25;23.30;;;15.40;;
4521;SDS011;2273;48.464;11.926;2023-02-24T04:16:01;31.27;;;18.77;;
4521;SDS011;2273;48.464;11.926;2023-02-24T04:18:33;35.63;;;18.83;;
4521;SDS011;2273;48.464;11.926;2023-02-24T04:20:59;31.33;;;18.80;;
4521;SDS011;2273;48.464;11.926;2023-02-24T04:23:32;31.73;;;17.20;;
4521;SDS011;2273;48.464;11.926;2023-02-24T04:26:03;27.17;;;16.80;;
4521;SDS011;2273;48.464;11.926;2023-02-24T04:28:29;23.80;;;16.23;;
4521;SDS011;2273;48.464;11.926;2023-02-24T04:30:59;31.27;;;18.73;;
4521;SDS011;2273;48.464;11.926;2023-02-24T04:33:31;23.70;;;15.10;;
4521;SDS011;2273;48.464;11.926;2023-02-24T04:35:57;25.47;;;15.87;;
4521;SDS011;2273;48.464;11.926;2023-02-24T04:38:24;26.20;;;16.40;;
4521;SDS011;2273;48.464;11.926;2023-02-24T04:40:51;23.23;;;14.93;;
4521;SDS011;2273;48.464;11.926;2023-02-24T04:43:17;24.70;;;15.13;;
4521;SDS011;2273;48.464;11.926;2023-02-24T04:45:42;32.63;;;17.20;;
4521;SDS011;2273;48.464;11.926;2023-02-24T04:48:08;27.50;;;16.80;;
4521;SDS011;2273;48.464;11.926;2023-02-24T04:50:38;22.93;;;14.97;;
4521;SDS011;2273;48.464;11.926;2023-02-24T04:53:12;24.40;;;16.10;;
4521;SDS011;2273;48.464;11.926;2023-02-24T04:55:42;25.07;;;14.37;;
4521;SDS011;2273;48.464;11.926;2023-02-24T04:58:13;23.17;;;13.63;;
4521;SDS011;2273;48.464;11.926;2023-02-24T05:00:43;21.50;;;14.10;;
4521;SDS011;2273;48.464;11.926;2023-02-24T05:03:11;24.93;;;15.20;;
4521;SDS011;2273;48.464;11.926;2023-02-24T05:05:37;22.73;;;13.93;;
4521;SDS011;2273;48.464;11.926;2023-02-24T05:08:06;20.20;;;14.10;;
4521;SDS011;2273;48.464;11.926;2023-02-24T05:10:37;22.90;;;13.50;;
4521;SDS011;2273;48.464;11.926;2023-02-24T05:13:04;21.10;;;13.90;;
4521;SDS011;2273;48.464;11.926;2023-02-24T05:15:34;22.37;;;14.87;;
4521;SDS011;2273;48.464;11.926;2023-02-24T05:18:04;23.90;;;14.73;;
4521;SDS011;2273;48.464;11.926;2023-02-24T05:20:37;21.37;;;13.90;;
4521;SDS011;2273;48.464;11.926;2023-02-24T05:23:25;28.43;;;14.13;;
4521;SDS011;2273;48.464;11.926;2023-02-24T05:25:51;22.63;;;14.90;;
4521;SDS011;2273;48.464;11.926;2023-02-24T05:28:22;20.70;;;13.93;;
4521;SDS011;2273;48.464;11.926;2023-02-24T05:30:51;19.03;;;13.13;;
4521;SDS011;2273;48.464;11.926;2023-02-24T05:33:18;22.13;;;13.83;;
4521;SDS011;2273;48.464;11.926;2023-02-24T05:35:47;19.47;;;12.43;;
4521;SDS011;2273;48.464;11.926;2023-02-24T05:38:15;21.10;;;13.00;;
4521;SDS011;2273;48.464;11.926;2023-02-24T05:40:44;19.77;;;13.30;;
4521;SDS011;2273;48.464;11.926;2023-02-24T05:43:13;25.77;;;13.37;;
4521;SDS011;2273;48.464;11.926;2023-02-24T05:45:46;21.13;;;13.90;;
4521;SDS011;2273;48.464;11.926;2023-02-24T05:48:12;25.00;;;15.30;;
4521;SDS011;2273;48.464;11.926;2023-02-24T05:50:41;32.73;;;14.70;;
4521;SDS011;2273;48.464;11.926;2023-02-24T05:53:11;25.17;;;14.87;;
4521;SDS011;2273;48.464;11.926;2023-02-24T05:55:37;22.40;;;13.60;;
4521;SDS011;2273;48.464;11.926;2023-02-24T05:58:03;22.57;;;13.80;;
4521;SDS011;2273;48.464;11.926;2023-02-24T06:00:32;22.30;;;12.40;;
4521;SDS011;2273;48.464;11.926;2023-02-24T06:02:57;19.43;;;12.70;;
4521;SDS011;2273;48.464;11.926;2023-02-24T06:05:32;20.60;;;12.50;;
4521;SDS011;2273;48.464;11.926;2023-02-24T06:07:59;19.40;;;13.80;;
4521;SDS011;2273;48.464;11.926;2023-02-24T06:10:29;19.63;;;13.37;;
4521;SDS011;2273;48.464;11.926;2023-02-24T06:12:59;20.20;;;13.13;;
4521;SDS011;2273;48.464;11.926;2023-02-24T06:15:25;17.10;;;11.70;;
4521;SDS011;2273;48.464;11.926;2023-02-24T06:17:51;17.90;;;11.60;;
4521;SDS011;2273;48.464;11.926;2023-02-24T06:20:20;19.73;;;13.13;;
4521;SDS011;2273;48.464;11.926;2023-02-24T06:22:47;20.20;;;12.67;;
4521;SDS011;2273;48.464;11.926;2023-02-24T06:25:18;24.63;;;13.70;;
4521;SDS011;2273;48.464;11.926;2023-02-24T06:27:45;24.13;;;14.70;;
4521;SDS011;2273;48.464;11.926;2023-02-24T06:30:17;22.27;;;14.50;;
4521;SDS011;2273;48.464;11.926;2023-02-24T06:32:43;20.90;;;12.80;;
4521;SDS011;2273;48.464;11.926;2023-02-24T06:35:09;23.63;;;14.57;;
4521;SDS011;2273;48.464;11.926;2023-02-24T06:37:36;19.20;;;13.13;;
4521;SDS011;2273;48.464;11.926;2023-02-24T06:40:04;17.87;;;12.97;;
4521;SDS011;2273;48.464;11.926;2023-02-24T06:42:46;17.93;;;12.37;;
4521;SDS011;2273;48.464;11.926;2023-02-24T06:45:12;21.43;;;13.50;;
4521;SDS011;2273;48.464;11.926;2023-02-24T06:47:39;21.47;;;14.20;;
4521;SDS011;2273;48.464;11.926;2023-02-24T06:50:07;26.30;;;12.67;;
4521;SDS011;2273;48.464;11.926;2023-02-24T06:52:34;24.10;;;14.00;;
4521;SDS011;2273;48.464;11.926;2023-02-24T06:55:00;23.60;;;15.03;;
4521;SDS011;2273;48.464;11.926;2023-02-24T06:57:29;26.13;;;15.33;;
4521;SDS011;2273;48.464;11.926;2023-02-24T06:59:58;24.53;;;13.07;;
4521;SDS011;2273;48.464;11.926;2023-02-24T07:02:25;20.77;;;13.63;;
4521;SDS011;2273;48.464;11.926;2023-02-24T07:04:57;20.60;;;12.70;;
4521;SDS011;2273;48.464;11.926;2023-02-24T07:07:22;21.40;;;14.10;;
4521;SDS011;2273;48.464;11.926;2023-02-24T07:09:48;21.60;;;13.17;;
4521;SDS011;2273;48.464;11.926;2023-02-24T07:12:13;19.00;;;12.77;;
4521;SDS011;2273;48.464;11.926;2023-02-24T07:14:44;21.73;;;14.00;;
4521;SDS011;2273;48.464;11.926;2023-02-24T07:17:15;25.13;;;15.90;;
4521;SDS011;2273;48.464;11.926;2023-02-24T07:19:43;21.47;;;13.87;;
4521;SDS011;2273;48.464;11.926;2023-02-24T07:22:08;29.47;;;16.03;;
4521;SDS011;2273;48.464;11.926;2023-02-24T07:24:34;24.60;;;15.23;;
4521;SDS011;2273;48.464;11.926;2023-02-24T07:27:02;26.53;;;16.43;;
4521;SDS011;2273;48.464;11.926;2023-02-24T07:29:29;26.73;;;16.97;;
4521;SDS011;2273;48.464;11.926;2023-02-24T07:32:03;30.60;;;18.50;;
4521;SDS011;2273;48.464;11.926;2023-02-24T07:34:29;24.57;;;15.23;;
4521;SDS011;2273;48.464;11.926;2023-02-24T07:36:57;27.10;;;16.47;;
4521;SDS011;2273;48.464;11.926;2023-02-24T07:39:23;24.00;;;14.40;;
4521;SDS011;2273;48.464;11.926;2023-02-24T07:41:50;20.50;;;14.33;;
4521;SDS011;2273;48.464;11.926;2023-02-24T07:44:17;25.20;;;15.33;;
4521;SDS011;2273;48.464;11.926;2023-02-24T07:46:43;27.97;;;15.27;;
4521;SDS011;2273;48.464;11.926;2023-02-24T07:49:13;21.80;;;14.10;;
4521;SDS011;2273;48.464;11.926;2023-02-24T07:51:40;25.70;;;15.00;;
4521;SDS011;2273;48.464;11.926;2023-02-24T07:54:06;23.40;;;14.67;;
4521;SDS011;2273;48.464;11.926;2023-02-24T07:56:32;20.53;;;14.33;;
4521;SDS011;2273;48.464;11.926;2023-02-24T07:59:02;25.27;;;15.53;;
4521;SDS011;2273;48.464;11.926;2023-02-24T08:01:32;22.50;;;14.27;;
4521;SDS011;2273;48.464;11.926;2023-02-24T08:04:03;19.77;;;13.23;;
4521;SDS011;2273;48.464;11.926;2023-02-24T08:06:36;20.67;;;13.40;;
4521;SDS011;2273;48.464;11.926;2023-02-24T08:09:04;18.60;;;12.97;;
4521;SDS011;2273;48.464;11.926;2023-02-24T08:14:26;21.80;;;14.20;;
4521;SDS011;2273;48.464;11.926;2023-02-24T08:16:59;24.93;;;14.97;;
4521;SDS011;2273;48.464;11.926;2023-02-24T08:19:30;22.37;;;15.53;;
4521;SDS011;2273;48.464;11.926;2023-02-24T08:22:04;26.23;;;16.90;;
4521;SDS011;2273;48.464;11.926;2023-02-24T08:24:55;31.83;;;16.27;;
4521;SDS011;2273;48.464;11.926;2023-02-24T08:27:30;31.37;;;17.47;;
4521;SDS011;2273;48.464;11.926;2023-02-24T08:29:56;30.23;;;17.93;;
4521;SDS011;2273;48.464;11.926;2023-02-24T08:35:19;33.10;;;18.23;;
4521;SDS011;2273;48.464;11.926;2023-02-24T08:37:48;31.40;;;18.57;;
4521;SDS011;2273;48.464;11.926;2023-02-24T08:40:17;30.13;;;16.90;;
4521;SDS011;2273;48.464;11.926;2023-02-24T08:43:41;42.93;;;19.93;;
4521;SDS011;2273;48.464;11.926;2023-02-24T08:45:54;30.20;;;16.60;;
4521;SDS011;2273;48.464;11.926;2023-02-24T08:48:31;31.43;;;17.30;;
4521;SDS011;2273;48.464;11.926;2023-02-24T08:51:03;32.83;;;19.73;;
4521;SDS011;2273;48.464;11.926;2023-02-24T08:53:40;40.93;;;20.20;;
4521;SDS011;2273;48.464;11.926;2023-02-24T08:56:09;40.03;;;18.83;;
4521;SDS011;2273;48.464;11.926;2023-02-24T08:58:43;36.13;;;18.40;;
4521;SDS011;2273;48.464;11.926;2023-02-24T09:01:19;33.47;;;20.00;;
4521;SDS011;2273;48.464;11.926;2023-02-24T09:03:50;32.47;;;18.83;;
4521;SDS011;2273;48.464;11.926;2023-02-24T09:06:19;32.47;;;16.90;;
4521;SDS011;2273;48.464;11.926;2023-02-24T09:08:51;38.93;;;19.40;;
4521;SDS011;2273;48.464;11.926;2023-02-24T09:11:38;39.43;;;20.80;;
4521;SDS011;2273;48.464;11.926;2023-02-24T09:14:09;36.10;;;19.80;;
4521;SDS011;2273;48.464;11.926;2023-02-24T09:16:41;33.07;;;18.30;;
4521;SDS011;2273;48.464;11.926;2023-02-24T09:19:36;30.20;;;17.87;;
4521;SDS011;2273;48.464;11.926;2023-02-24T09:22:23;30.07;;;17.20;;
4521;SDS011;2273;48.464;11.926;2023-02-24T09:25:04;30.70;;;18.80;;
4521;SDS011;2273;48.464;11.926;2023-02-24T09:28:05;31.67;;;17.90;;
4521;SDS011;2273;48.464;11.926;2023-02-24T09:30:37;30.40;;;18.70;;
4521;SDS011;2273;48.464;11.926;2023-02-24T09:35:57;29.43;;;18.00;;
4521;SDS011;2273;48.464;11.926;2023-02-24T09:38:46;33.53;;;19.47;;
4521;SDS011;2273;48.464;11.926;2023-02-24T09:41:32;29.03;;;17.80;;
4521;SDS011;2273;48.464;11.926;2023-02-24T09:44:19;35.33;;;20.40;;
4521;SDS011;2273;48.464;11.926;2023-02-24T09:49:49;38.80;;;19.73;;
4521;SDS011;2273;48.464;11.926;2023-02-24T09:52:20;30.37;;;19.33;;
4521;SDS011;2273;48.464;11.926;2023-02-24T09:55:04;41.67;;;20.93;;
4521;SDS011;2273;48.464;11.926;2023-02-24T09:58:09;37.77;;;20.10;;
4521;SDS011;2273;48.464;11.926;2023-02-24T10:00:49;35.33;;;21.97;;
4521;SDS011;2273;48.464;11.926;2023-02-24T10:09:21;36.53;;;20.63;;
4521;SDS011;2273;48.464;11.926;2023-02-24T10:11:52;30.53;;;18.80;;
4521;SDS011;2273;48.464;11.926;2023-02-24T10:14:21;37.87;;;21.27;;
4521;SDS011;2273;48.464;11.926;2023-02-24T10:16:53;41.90;;;23.07;;
4521;SDS011;2273;48.464;11.926;2023-02-24T10:19:37;37.67;;;23.20;;
4521;SDS011;2273;48.464;11.926;2023-02-24T10:22:18;38.83;;;22.23;;
4521;SDS011;2273;48.464;11.926;2023-02-24T10:25:15;42.27;;;22.90;;
4521;SDS011;2273;48.464;11.926;2023-02-24T10:30:27;40.57;;;21.83;;
4521;SDS011;2273;48.464;11.926;2023-02-24T10:33:09;35.37;;;22.53;;
4521;SDS011;2273;48.464;11.926;2023-02-24T10:35:43;35.10;;;22.10;;
4521;SDS011;2273;48.464;11.926;2023-02-24T10:38:08;37.80;;;22.00;;
4521;SDS011;2273;48.464;11.926;2023-02-24T10:40:48;44.33;;;23.90;;
4521;SDS011;2273;48.464;11.926;2023-02-24T10:43:24;41.73;;;22.67;;
4521;SDS011;2273;48.464;11.926;2023-02-24T10:45:59;36.77;;;22.67;;
4521;SDS011;2273;48.464;11.926;2023-02-24T10:48:41;36.50;;;22.20;;
4521;SDS011;2273;48.464;11.926;2023-02-24T10:51:16;38.80;;;21.53;;
4521;SDS011;2273;48.464;11.926;2023-02-24T10:54:29;44.17;;;22.10;;
4521;SDS011;2273;48.464;11.926;2023-02-24T10:56:57;38.93;;;21.63;;
4521;SDS011;2273;48.464;11.926;2023-02-24T10:59:41;35.30;;;23.10;;
4521;SDS011;2273;48.464;11.926;2023-02-24T11:02:33;35.93;;;22.40;;
4521;SDS011;2273;48.464;11.926;2023-02-24T11:05:19;36.80;;;22.60;;
4521;SDS011;2273;48.464;11.926;2023-02-24T11:11:00;39.03;;;22.40;;
4521;SDS011;2273;48.464;11.926;2023-02-24T11:13:31;42.60;;;24.70;;
4521;SDS011;2273;48.464;11.926;2023-02-24T11:16:15;38.93;;;21.07;;
4521;SDS011;2273;48.464;11.926;2023-02-24T11:19:00;35.73;;;22.47;;
4521;SDS011;2273;48.464;11.926;2023-02-24T11:21:25;41.03;;;23.57;;
4521;SDS011;2273;48.464;11.926;2023-02-24T11:23:58;39.07;;;22.60;;
4521;SDS011;2273;48.464;11.926;2023-02-24T11:29:48;39.40;;;22.73;;
4521;SDS011;2273;48.464;11.926;2023-02-24T11:43:04;38.97;;;23.40;;
4521;SDS011;2273;48.464;11.926;2023-02-24T11:55:45;38.80;;;25.30;;
4521;SDS011;2273;48.464;11.926;2023-02-24T11:58:18;41.17;;;22.47;;
4521;SDS011;2273;48.464;11.926;2023-02-24T12:00:52;40.90;;;24.90;;
4521;SDS011;2273;48.464;11.926;2023-02-24T12:03:25;41.33;;;21.80;;
4521;SDS011;2273;48.464;11.926;2023-02-24T12:05:55;38.50;;;24.23;;
4521;SDS011;2273;48.464;11.926;2023-02-24T12:08:33;35.87;;;21.97;;
4521;SDS011;2273;48.464;11.926;2023-02-24T12:13:55;36.03;;;22.10;;
4521;SDS011;2273;48.464;11.926;2023-02-24T12:16:30;37.23;;;21.87;;
4521;SDS011;2273;48.464;11.926;2023-02-24T12:18:59;40.07;;;23.87;;
4521;SDS011;2273;48.464;11.926;2023-02-24T12:21:36;41.83;;;22.57;;
4521;SDS011;2273;48.464;11.926;2023-02-24T12:24:07;35.67;;;21.40;;
4521;SDS011;2273;48.464;11.926;2023-02-24T12:37:52;39.50;;;25.67;;
4521;SDS011;2273;48.464;11.926;2023-02-24T12:40:39;45.13;;;23.90;;
4521;SDS011;2273;48.464;11.926;2023-02-24T12:46:08;39.63;;;21.97;;
4521;SDS011;2273;48.464;11.926;2023-02-24T12:54:13;38.13;;;21.47;;
4521;SDS011;2273;48.464;11.926;2023-02-24T12:59:50;42.33;;;21.70;;
4521;SDS011;2273;48.464;11.926;2023-02-24T13:02:36;42.90;;;21.60;;
4521;SDS011;2273;48.464;11.926;2023-02-24T13:08:01;48.90;;;20.53;;
4521;SDS011;2273;48.464;11.926;2023-02-24T13:13:22;40.63;;;21.70;;
4521;SDS011;2273;48.464;11.926;2023-02-24T13:15:58;44.10;;;21.53;;
4521;SDS011;2273;48.464;11.926;2023-02-24T13:18:25;42.30;;;21.03;;
4521;SDS011;2273;48.464;11.926;2023-02-24T13:21:00;40.40;;;20.73;;
4521;SDS011;2273;48.464;11.926;2023-02-24T13:23:27;37.30;;;21.33;;
4521;SDS011;2273;48.464;11.926;2023-02-24T13:25:53;39.27;;;21.07;;
4521;SDS011;2273;48.464;11.926;2023-02-24T13:30:55;43.10;;;21.20;;
4521;SDS011;2273;48.464;11.926;2023-02-24T13:33:24;40.80;;;21.43;;
4521;SDS011;2273;48.464;11.926;2023-02-24T13:36:05;39.43;;;22.20;;
4521;SDS011;2273;48.464;11.926;2023-02-24T13:38:35;48.27;;;22.03;;
4521;SDS011;2273;48.464;11.926;2023-02-24T13:43:54;44.80;;;21.53;;
4521;SDS011;2273;48.464;11.926;2023-02-24T13:46:25;40.70;;;22.53;;
4521;SDS011;2273;48.464;11.926;2023-02-24T13:49:02;49.47;;;22.53;;
4521;SDS011;2273;48.464;11.926;2023-02-24T13:54:14;39.87;;;21.50;;
4521;SDS011;2273;48.464;11.926;2023-02-24T13:57:06;40.10;;;22.17;;
4521;SDS011;2273;48.464;11.926;2023-02-24T13:59:50;43.83;;;21.33;;
4521;SDS011;2273;48.464;11.926;2023-02-24T14:02:24;45.00;;;22.93;;
4521;SDS011;2273;48.464;11.926;2023-02-24T14:04:54;41.23;;;19.67;;
4521;SDS011;2273;48.464;11.926;2023-02-24T14:07:21;36.10;;;20.63;;
4521;SDS011;2273;48.464;11.926;2023-02-24T14:09:56;38.03;;;20.60;;
4521;SDS011;2273;48.464;11.926;2023-02-24T14:12:24;34.10;;;20.40;;
4521;SDS011;2273;48.464;11.926;2023-02-24T14:14:51;44.03;;;20.83;;
4521;SDS011;2273;48.464;11.926;2023-02-24T14:17:28;42.03;;;21.17;;
4521;SDS011;2273;48.464;11.926;2023-02-24T14:20:40;35.47;;;21.53;;
4521;SDS011;2273;48.464;11.926;2023-02-24T14:22:48;44.97;;;22.40;;
4521;SDS011;2273;48.464;11.926;2023-02-24T14:25:17;44.33;;;21.97;;
4521;SDS011;2273;48.464;11.926;2023-02-24T14:27:44;40.50;;;20.73;;
4521;SDS011;2273;48.464;11.926;2023-02-24T14:30:45;45.60;;;20.90;;
4521;SDS011;2273;48.464;11.926;2023-02-24T14:33:04;37.53;;;20.90;;
4521;SDS011;2273;48.464;11.926;2023-02-24T14:35:35;41.00;;;22.43;;
4521;SDS011;2273;48.464;11.926;2023-02-24T14:38:06;40.50;;;20.57;;
4521;SDS011;2273;48.464;11.926;2023-02-24T14:40:31;41.43;;;21.47;;
4521;SDS011;2273;48.464;11.926;2023-02-24T14:42:57;39.27;;;20.73;;
4521;SDS011;2273;48.464;11.926;2023-02-24T14:45:24;37.17;;;21.77;;
4521;SDS011;2273;48.464;11.926;2023-02-24T14:47:54;39.50;;;20.90;;
4521;SDS011;2273;48.464;11.926;2023-02-24T14:50:27;50.33;;;24.33;;
4521;SDS011;2273;48.464;11.926;2023-02-24T14:52:59;41.13;;;20.93;;
4521;SDS011;2273;48.464;11.926;2023-02-24T14:55:28;48.20;;;20.43;;
4521;SDS011;2273;48.464;11.926;2023-02-24T14:58:08;48.90;;;21.47;;
4521;SDS011;2273;48.464;11.926;2023-02-24T15:00:46;37.97;;;20.13;;
4521;SDS011;2273;48.464;11.926;2023-02-24T15:05:48;39.00;;;22.00;;
4521;SDS011;2273;48.464;11.926;2023-02-24T15:08:19;43.50;;;22.50;;
4521;SDS011;2273;48.464;11.926;2023-02-24T15:10:51;44.23;;;23.03;;
4521;SDS011;2273;48.464;11.926;2023-02-24T15:13:19;41.17;;;21.50;;
4521;SDS011;2273;48.464;11.926;2023-02-24T15:16:25;42.90;;;22.10;;
4521;SDS011;2273;48.464;11.926;2023-02-24T15:19:00;39.63;;;21.93;;
4521;SDS011;2273;48.464;11.926;2023-02-24T15:21:27;41.20;;;21.93;;
4521;SDS011;2273;48.464;11.926;2023-02-24T15:26:50;47.67;;;24.23;;
4521;SDS011;2273;48.464;11.926;2023-02-24T15:29:26;46.93;;;23.53;;
4521;SDS011;2273;48.464;11.926;2023-02-24T15:31:53;47.20;;;25.03;;
4521;SDS011;2273;48.464;11.926;2023-02-24T15:34:27;53.47;;;26.40;;
4521;SDS011;2273;48.464;11.926;2023-02-24T15:36:57;45.20;;;24.23;;
4521;SDS011;2273;48.464;11.926;2023-02-24T15:39:28;56.17;;;25.80;;
4521;SDS011;2273;48.464;11.926;2023-02-24T15:44:50;47.27;;;24.50;;
4521;SDS011;2273;48.464;11.926;2023-02-24T15:47:21;44.40;;;24.47;;
4521;SDS011;2273;48.464;11.926;2023-02-24T15:49:48;44.17;;;23.27;;
4521;SDS011;2273;48.464;11.926;2023-02-24T15:52:13;46.53;;;23.53;;
4521;SDS011;2273;48.464;11.926;2023-02-24T15:54:40;41.57;;;24.57;;
4521;SDS011;2273;48.464;11.926;2023-02-24T15:57:08;41.00;;;23.83;;
4521;SDS011;2273;48.464;11.926;2023-02-24T15:59:34;38.87;;;22.37;;
4521;SDS011;2273;48.464;11.926;2023-02-24T16:01:59;41.50;;;21.13;;
4521;SDS011;2273;48.464;11.926;2023-02-24T16:04:25;34.80;;;20.77;;
4521;SDS011;2273;48.464;11.926;2023-02-24T16:06:52;37.23;;;20.87;;
4521;SDS011;2273;48.464;11.926;2023-02-24T16:09:24;35.97;;;20.70;;
4521;SDS011;2273;48.464;11.926;2023-02-24T16:11:56;38.53;;;21.43;;
4521;SDS011;2273;48.464;11.926;2023-02-24T16:14:22;33.40;;;20.90;;
4521;SDS011;2273;48.464;11.926;2023-02-24T16:16:48;35.03;;;19.53;;
4521;SDS011;2273;48.464;11.926;2023-02-24T16:19:14;35.17;;;20.10;;
4521;SDS011;2273;48.464;11.926;2023-02-24T16:21:40;40.07;;;21.77;;
4521;SDS011;2273;48.464;11.926;2023-02-24T16:24:05;32.57;;;19.50;;
4521;SDS011;2273;48.464;11.926;2023-02-24T16:26:33;38.03;;;21.00;;
4521;SDS011;2273;48.464;11.926;2023-02-24T16:29:00;33.93;;;20.43;;
4521;SDS011;2273;48.464;11.926;2023-02-24T16:31:25;36.53;;;21.00;;
4521;SDS011;2273;48.464;11.926;2023-02-24T16:33:51;31.70;;;19.83;;
4521;SDS011;2273;48.464;11.926;2023-02-24T16:36:17;43.23;;;20.80;;
4521;SDS011;2273;48.464;11.926;2023-02-24T16:38:43;40.37;;;22.13;;
4521;SDS011;2273;48.464;11.926;2023-02-24T16:41:10;41.17;;;21.40;;
4521;SDS011;2273;48.464;11.926;2023-02-24T16:43:36;33.50;;;19.73;;
4521;SDS011;2273;48.464;11.926;2023-02-24T16:46:03;46.27;;;20.87;;
4521;SDS011;2273;48.464;11.926;2023-02-24T16:48:30;38.33;;;22.03;;
4521;SDS011;2273;48.464;11.926;2023-02-24T16:51:01;43.63;;;21.87;;
4521;SDS011;2273;48.464;11.926;2023-02-24T16:53:28;40.20;;;20.20;;
4521;SDS011;2273;48.464;11.926;2023-02-24T16:55:53;38.57;;;20.57;;
4521;SDS011;2273;48.464;11.926;2023-02-24T16:58:18;44.13;;;21.97;;
4521;SDS011;2273;48.464;11.926;2023-02-24T17:00:45;43.70;;;22.83;;
4521;SDS011;2273;48.464;11.926;2023-02-24T17:03:18;40.43;;;20.70;;
4521;SDS011;2273;48.464;11.926;2023-02-24T17:05:45;39.73;;;20.50;;
4521;SDS011;2273;48.464;11.926;2023-02-24T17:08:12;42.27;;;20.20;;
4521;SDS011;2273;48.464;11.926;2023-02-24T17:10:40;36.83;;;20.90;;
4521;SDS011;2273;48.464;11.926;2023-02-24T17:13:07;39.90;;;21.13;;
4521;SDS011;2273;48.464;11.926;2023-02-24T17:15:34;36.83;;;23.33;;